Time;durP1;ratioP1;P1;durP2;ratioP2;P2;SDS_P1;SDS_P2;PMS_P1;PMS_P2;Temp;Humidity;BMP_temperature;BMP_pressure;BME280_temperature;BME280_humidity;BME280_pressure;Samples;Min_cycle;Max_cycle;Signal;HPM_P1;HPM_P2
2023/01/25 00:02:01;;;;;;;12.43;10.45;;;5.10;80.10;;;;;;5066329;28;20043;-85
2023/01/25 00:04:27;;;;;;;11.90;9.93;;;5.20;80.10;;;;;;5093835;28;20111;-85
2023/01/25 00:06:53;;;;;;;12.57;9.77;;;5.20;80.20;;;;;;5060157;28;20070;-85
2023/01/25 00:09:19;;;;;;;12.02;9.93;;;5.10;80.10;;;;;;5085317;28;20032;-85
2023/01/25 00:11:46;;;;;;;12.68;10.38;;;5.10;80.10;;;;;;5081850;28;20393;-85
2023/01/25 00:14:13;;;;;;;14.25;11.73;;;5.10;80.10;;;;;;5075379;28;20054;-84
2023/01/25 00:16:39;;;;;;;13.32;10.70;;;5.10;80.10;;;;;;5059074;28;20040;-84
2023/01/25 00:19:07;;;;;;;13.23;10.75;;;5.10;80.10;;;;;;5086710;28;20032;-85
2023/01/25 00:21:33;;;;;;;11.48;9.55;;;5.10;80.10;;;;;;5076663;28;20127;-85
2023/01/25 00:23:59;;;;;;;12.15;10.13;;;5.10;80.10;;;;;;5068047;28;20029;-85
2023/01/25 00:26:25;;;;;;;12.68;10.52;;;5.10;80.10;;;;;;5040200;28;20024;-85
2023/01/25 00:28:55;;;;;;;13.48;10.48;;;5.10;80.10;;;;;;5060948;28;20055;-85
2023/01/25 00:31:32;;;;;;;13.23;10.65;;;5.10;80.10;;;;;;5071847;28;20145;-86
2023/01/25 00:34:36;;;;;;;13.10;10.73;;;5.10;80.10;;;;;;5055912;28;20017;-85
2023/01/25 00:37:27;;;;;;;11.75;9.93;;;5.10;80.20;;;;;;5074428;28;20021;-85
2023/01/25 00:39:52;;;;;;;12.13;9.68;;;5.10;80.80;;;;;;5081362;28;20086;-85
2023/01/25 00:42:19;;;;;;;12.38;10.00;;;5.10;80.10;;;;;;5067726;28;20048;-85
2023/01/25 00:44:46;;;;;;;12.25;10.18;;;5.10;80.10;;;;;;5107261;28;20028;-85
2023/01/25 00:47:12;;;;;;;12.85;10.30;;;5.00;80.10;;;;;;5070754;28;20066;-84
2023/01/25 00:49:39;;;;;;;11.90;9.82;;;5.00;80.10;;;;;;5062495;28;20385;-85
2023/01/25 00:52:06;;;;;;;13.20;10.73;;;5.00;80.10;;;;;;5086621;28;20057;-85
2023/01/25 00:54:32;;;;;;;13.48;10.15;;;5.00;80.10;;;;;;5085925;28;20461;-85
2023/01/25 00:56:57;;;;;;;14.13;11.23;;;5.00;80.10;;;;;;5043991;28;20031;-84
2023/01/25 00:59:24;;;;;;;13.00;10.55;;;5.00;80.10;;;;;;5070288;28;20062;-84
2023/01/25 01:01:52;;;;;;;13.40;10.93;;;5.00;80.10;;;;;;5055959;28;20029;-85
2023/01/25 01:04:18;;;;;;;11.65;9.27;;;5.00;80.10;;;;;;5096825;28;20488;-85
2023/01/25 01:06:44;;;;;;;12.88;9.65;;;5.00;80.10;;;;;;5072574;28;20074;-85
2023/01/25 01:09:15;;;;;;;13.70;10.88;;;5.00;80.10;;;;;;5088798;28;20115;-85
2023/01/25 01:11:41;;;;;;;12.35;10.82;;;5.00;80.10;;;;;;5053178;28;20132;-85
2023/01/25 01:14:07;;;;;;;12.80;10.38;;;5.00;80.10;;;;;;5054115;28;20123;-85
2023/01/25 01:16:34;;;;;;;12.88;10.95;;;5.00;80.10;;;;;;5095384;28;20123;-85
2023/01/25 01:18:59;;;;;;;13.52;11.02;;;5.00;80.10;;;;;;5080281;28;20169;-85
2023/01/25 01:21:25;;;;;;;11.85;10.25;;;5.00;80.00;;;;;;5096726;28;20548;-85
2023/01/25 01:23:53;;;;;;;12.88;10.77;;;5.00;80.00;;;;;;5082138;28;20028;-84
2023/01/25 01:26:19;;;;;;;12.95;10.68;;;5.00;80.10;;;;;;5081908;28;20101;-85
2023/01/25 01:28:45;;;;;;;12.32;10.15;;;5.00;80.00;;;;;;5077870;28;20040;-85
2023/01/25 01:31:22;;;;;;;13.00;10.40;;;4.90;80.00;;;;;;5093312;28;20117;-85
2023/01/25 01:34:00;;;;;;;13.70;10.77;;;5.00;80.10;;;;;;5061032;28;20039;-84
2023/01/25 01:36:28;;;;;;;13.05;10.75;;;5.00;80.00;;;;;;5086739;28;20024;-84
2023/01/25 01:38:54;;;;;;;12.27;10.20;;;4.90;80.00;;;;;;5094115;28;20028;-85
2023/01/25 01:41:21;;;;;;;13.40;10.55;;;5.00;80.00;;;;;;5079921;28;20111;-85
2023/01/25 01:43:47;;;;;;;13.48;11.27;;;4.90;80.00;;;;;;5062575;28;20111;-85
2023/01/25 01:46:16;;;;;;;12.82;10.35;;;4.90;80.00;;;;;;5081903;28;20050;-85
2023/01/25 01:49:08;;;;;;;12.15;10.20;;;4.90;80.00;;;;;;5076953;28;20016;-85
2023/01/25 01:51:49;;;;;;;12.20;10.32;;;4.90;80.00;;;;;;5092967;28;20027;-85
2023/01/25 01:54:29;;;;;;;12.52;10.43;;;4.90;80.00;;;;;;5064913;28;20055;-85
2023/01/25 01:57:13;;;;;;;12.77;10.52;;;4.90;80.00;;;;;;5082522;28;20051;-84
2023/01/25 02:00:04;;;;;;;12.63;10.02;;;4.90;80.10;;;;;;5081384;28;20092;-85
2023/01/25 02:02:40;;;;;;;12.85;10.13;;;4.90;80.10;;;;;;5074396;28;20028;-85
2023/01/25 02:05:11;;;;;;;12.00;10.43;;;4.90;80.00;;;;;;5095726;28;20035;-77
2023/01/25 02:07:38;;;;;;;12.80;10.43;;;4.90;80.10;;;;;;5094803;28;20043;-77
2023/01/25 02:10:10;;;;;;;12.15;10.40;;;4.90;80.00;;;;;;5078225;28;20032;-78
2023/01/25 02:12:37;;;;;;;13.07;10.77;;;4.90;80.10;;;;;;5061190;28;20020;-77
2023/01/25 02:15:03;;;;;;;12.65;10.60;;;4.90;80.10;;;;;;5061291;28;20035;-77
2023/01/25 02:17:40;;;;;;;13.77;11.50;;;4.90;80.10;;;;;;5062106;28;20420;-76
2023/01/25 02:20:21;;;;;;;13.27;11.07;;;4.90;80.10;;;;;;5095506;28;20082;-77
2023/01/25 02:23:08;;;;;;;12.60;10.32;;;4.90;80.10;;;;;;5096454;28;20464;-76
2023/01/25 02:25:33;;;;;;;12.25;10.00;;;4.80;80.00;;;;;;5077574;28;20127;-78
2023/01/25 02:28:10;;;;;;;14.20;10.73;;;4.80;80.00;;;;;;5060463;28;20024;-77
2023/01/25 02:30:37;;;;;;;12.15;10.23;;;4.90;80.10;;;;;;5079189;28;20056;-78
2023/01/25 02:33:02;;;;;;;11.57;9.77;;;4.80;80.00;;;;;;5055236;28;20055;-77
2023/01/25 02:35:41;;;;;;;14.25;11.80;;;4.80;80.00;;;;;;5054244;28;20505;-77
2023/01/25 02:38:10;;;;;;;12.93;10.43;;;4.90;80.10;;;;;;5038053;28;20135;-78
2023/01/25 02:40:47;;;;;;;12.63;10.25;;;4.80;80.00;;;;;;5037601;28;20064;-77
2023/01/25 02:43:15;;;;;;;12.95;10.55;;;4.80;80.00;;;;;;5054268;28;20035;-78
2023/01/25 02:45:45;;;;;;;12.95;10.88;;;4.80;80.00;;;;;;5054542;28;20059;-77
2023/01/25 02:48:10;;;;;;;13.15;10.85;;;4.80;80.00;;;;;;5055386;28;20032;-77
2023/01/25 02:50:36;;;;;;;13.10;11.57;;;4.80;80.00;;;;;;5037481;28;20028;-78
2023/01/25 02:53:02;;;;;;;15.02;11.02;;;4.80;80.00;;;;;;5055318;28;20428;-77
2023/01/25 02:55:28;;;;;;;13.68;11.90;;;4.80;80.00;;;;;;5038090;28;20017;-77
2023/01/25 02:57:54;;;;;;;13.38;11.02;;;4.80;80.00;;;;;;5037367;28;20036;-77
2023/01/25 03:00:20;;;;;;;14.10;11.10;;;4.80;80.00;;;;;;5053798;28;20039;-78
2023/01/25 03:02:46;;;;;;;15.38;11.52;;;4.80;80.00;;;;;;5037197;28;20032;-78
2023/01/25 03:05:12;;;;;;;12.45;10.25;;;4.80;80.00;;;;;;5037145;28;20025;-76
2023/01/25 03:07:38;;;;;;;12.35;10.27;;;4.80;80.10;;;;;;5036840;28;20044;-77
2023/01/25 03:10:04;;;;;;;13.00;10.27;;;4.80;80.00;;;;;;5037388;28;20090;-77
2023/01/25 03:12:32;;;;;;;13.85;10.65;;;4.80;80.10;;;;;;5053526;28;20029;-78
2023/01/25 03:14:58;;;;;;;12.88;10.73;;;4.80;80.00;;;;;;5036998;28;20119;-76
2023/01/25 03:17:23;;;;;;;12.68;10.52;;;4.80;80.00;;;;;;5037430;28;20029;-77
2023/01/25 03:19:49;;;;;;;13.02;10.55;;;4.80;80.00;;;;;;5036903;28;20070;-77
2023/01/25 03:22:15;;;;;;;13.27;10.90;;;4.70;80.00;;;;;;5036964;28;20381;-77
2023/01/25 03:24:41;;;;;;;13.00;10.43;;;4.70;80.00;;;;;;5054212;28;20481;-78
2023/01/25 03:27:10;;;;;;;13.32;10.93;;;4.80;80.00;;;;;;5037487;28;20048;-77
2023/01/25 03:29:56;;;;;;;11.88;10.15;;;4.70;80.00;;;;;;5058330;28;20518;-77
2023/01/25 03:32:25;;;;;;;13.50;11.55;;;4.70;80.00;;;;;;5061444;28;20040;-77
2023/01/25 03:34:51;;;;;;;13.50;11.15;;;4.70;79.90;;;;;;5093398;28;20032;-77
2023/01/25 03:37:18;;;;;;;13.23;10.55;;;4.70;79.90;;;;;;5076850;28;20518;-77
2023/01/25 03:39:44;;;;;;;14.52;11.55;;;4.70;80.00;;;;;;5076182;28;20021;-77
2023/01/25 03:42:10;;;;;;;13.57;10.90;;;4.70;80.00;;;;;;5093164;28;20028;-78
2023/01/25 03:44:36;;;;;;;13.68;10.63;;;4.70;79.90;;;;;;5093041;28;20022;-78
2023/01/25 03:47:03;;;;;;;13.88;11.25;;;4.70;80.00;;;;;;5092607;28;20134;-78
2023/01/25 03:49:29;;;;;;;13.60;11.20;;;4.70;79.90;;;;;;5043338;28;20028;-77
2023/01/25 03:51:56;;;;;;;12.75;10.32;;;4.70;80.00;;;;;;5076016;28;20033;-77
2023/01/25 03:54:29;;;;;;;14.45;11.70;;;4.70;80.00;;;;;;5076253;28;20036;-76
2023/01/25 03:56:56;;;;;;;13.48;11.02;;;4.70;80.00;;;;;;5076262;28;20032;-76
2023/01/25 03:59:24;;;;;;;14.10;11.23;;;4.70;80.00;;;;;;5060529;28;20020;-77
2023/01/25 04:01:50;;;;;;;14.27;11.45;;;4.70;80.00;;;;;;5093044;28;20039;-77
2023/01/25 04:04:17;;;;;;;13.55;10.90;;;4.70;80.00;;;;;;5076371;28;20057;-76
2023/01/25 04:06:44;;;;;;;14.07;10.48;;;4.70;80.00;;;;;;5076252;28;20108;-76
2023/01/25 04:09:10;;;;;;;14.88;11.45;;;4.70;79.90;;;;;;5092719;28;20016;-77
2023/01/25 04:11:42;;;;;;;13.65;10.98;;;4.70;80.00;;;;;;5076050;28;20036;-76
2023/01/25 04:14:10;;;;;;;13.70;10.93;;;4.70;80.00;;;;;;5076058;28;20035;-77
2023/01/25 04:16:45;;;;;;;14.25;11.63;;;4.60;79.90;;;;;;5060614;28;20044;-77
2023/01/25 04:19:29;;;;;;;13.93;10.83;;;4.60;79.90;;;;;;5064819;28;20066;-77
2023/01/25 04:21:58;;;;;;;12.40;10.45;;;4.60;79.90;;;;;;5075349;28;20028;-78
2023/01/25 04:24:28;;;;;;;14.48;11.23;;;4.70;80.00;;;;;;5044143;28;20078;-77
2023/01/25 04:26:54;;;;;;;13.68;10.95;;;4.60;79.90;;;;;;5075905;28;20032;-77
2023/01/25 04:29:20;;;;;;;13.60;10.98;;;4.60;80.00;;;;;;5075595;28;20419;-78
2023/01/25 04:31:47;;;;;;;15.25;11.40;;;4.60;79.90;;;;;;5037177;28;20065;-77
2023/01/25 04:34:13;;;;;;;14.85;12.07;;;4.60;80.00;;;;;;5052453;28;20401;-77
2023/01/25 04:36:38;;;;;;;14.38;11.80;;;4.60;80.00;;;;;;5035807;28;20029;-77
2023/01/25 04:39:04;;;;;;;14.35;11.18;;;4.60;79.90;;;;;;5052177;28;20075;-76
2023/01/25 04:41:30;;;;;;;14.05;11.55;;;4.60;80.00;;;;;;5035332;28;20036;-77
2023/01/25 04:43:56;;;;;;;14.50;11.50;;;4.60;80.00;;;;;;5053022;28;20347;-77
2023/01/25 04:46:23;;;;;;;15.07;11.52;;;4.60;80.60;;;;;;5035566;28;20029;-78
2023/01/25 04:48:49;;;;;;;14.52;11.68;;;4.60;80.00;;;;;;5051715;28;20504;-77
2023/01/25 04:51:16;;;;;;;16.17;12.30;;;4.60;80.00;;;;;;5035675;28;20036;-78
2023/01/25 04:53:42;;;;;;;15.43;12.38;;;4.60;79.90;;;;;;5039323;28;20029;-77
2023/01/25 04:56:09;;;;;;;15.30;12.25;;;4.60;79.90;;;;;;5057110;28;20128;-77
2023/01/25 04:58:43;;;;;;;15.02;12.43;;;4.60;80.00;;;;;;5055846;28;20063;-77
2023/01/25 05:01:10;;;;;;;14.63;11.80;;;4.50;79.90;;;;;;5039652;28;20044;-77
2023/01/25 05:03:36;;;;;;;16.10;12.80;;;4.60;80.00;;;;;;5039749;28;20116;-77
2023/01/25 05:06:05;;;;;;;14.77;11.63;;;4.60;80.00;;;;;;5056297;28;20059;-77
2023/01/25 05:08:32;;;;;;;16.08;12.55;;;4.60;80.00;;;;;;5057249;28;20373;-77
2023/01/25 05:11:00;;;;;;;15.02;12.15;;;4.50;79.90;;;;;;5039977;28;20033;-77
2023/01/25 05:13:39;;;;;;;16.17;12.02;;;4.50;79.90;;;;;;5041264;28;20051;-78
2023/01/25 05:16:22;;;;;;;15.52;12.27;;;4.50;79.90;;;;;;5056609;28;20034;-78
2023/01/25 05:18:48;;;;;;;15.20;12.23;;;4.60;79.90;;;;;;5039217;28;20127;-77
2023/01/25 05:24:02;;;;;;;15.85;11.98;;;4.50;79.90;;;;;;5042030;28;20040;-76
2023/01/25 05:29:13;;;;;;;16.55;12.55;;;4.50;79.90;;;;;;5041671;28;20037;-77
2023/01/25 05:31:45;;;;;;;16.83;13.25;;;4.50;79.90;;;;;;5040468;28;20389;-78
2023/01/25 05:34:11;;;;;;;14.88;11.95;;;4.50;79.90;;;;;;5055482;28;20033;-78
2023/01/25 05:36:37;;;;;;;17.23;12.63;;;4.50;80.00;;;;;;5038798;28;20458;-77
2023/01/25 05:39:07;;;;;;;17.02;13.23;;;4.50;80.00;;;;;;5055339;28;20032;-76
2023/01/25 05:41:33;;;;;;;16.73;12.82;;;4.50;80.00;;;;;;5039199;28;20071;-76
2023/01/25 05:43:59;;;;;;;15.63;12.25;;;4.50;79.90;;;;;;5039090;28;20060;-76
2023/01/25 05:46:28;;;;;;;17.10;13.35;;;4.50;80.00;;;;;;5038792;28;20035;-77
2023/01/25 05:48:55;;;;;;;17.08;12.95;;;4.50;80.00;;;;;;5038951;28;20473;-77
2023/01/25 05:51:23;;;;;;;16.83;13.40;;;4.50;80.00;;;;;;5039074;28;20033;-77
2023/01/25 05:53:49;;;;;;;16.58;12.57;;;4.50;80.00;;;;;;5055319;28;20448;-77
2023/01/25 05:56:16;;;;;;;15.70;12.55;;;4.40;79.80;;;;;;5039507;28;20032;-77
2023/01/25 05:58:42;;;;;;;16.80;13.25;;;4.50;79.90;;;;;;5038492;28;20029;-77
2023/01/25 06:01:08;;;;;;;17.98;13.60;;;4.50;79.90;;;;;;5038639;28;20029;-78
2023/01/25 06:03:45;;;;;;;16.35;12.65;;;4.40;79.90;;;;;;5040431;28;20083;-78
2023/01/25 06:06:11;;;;;;;15.55;12.73;;;4.50;80.00;;;;;;5054847;28;20428;-78
2023/01/25 06:08:37;;;;;;;15.95;12.73;;;4.40;79.90;;;;;;5054876;28;20032;-77
2023/01/25 06:11:09;;;;;;;16.50;13.23;;;4.50;80.00;;;;;;5055448;28;20095;-78
2023/01/25 06:13:37;;;;;;;16.80;12.60;;;4.40;79.90;;;;;;5038619;28;20052;-79
2023/01/25 06:16:03;;;;;;;17.48;13.35;;;4.40;79.90;;;;;;5038521;28;20489;-77
2023/01/25 06:18:55;;;;;;;16.77;11.95;;;4.40;79.90;;;;;;5032220;28;20033;-78
2023/01/25 06:21:35;;;;;;;15.23;13.38;;;4.40;79.90;;;;;;5054878;28;20052;-75
2023/01/25 06:24:03;;;;;;;16.42;12.70;;;4.40;79.90;;;;;;5054708;28;20032;-78
2023/01/25 06:26:28;;;;;;;16.05;12.18;;;4.40;79.90;;;;;;5054751;28;20033;-77
2023/01/25 06:28:54;;;;;;;17.98;13.75;;;4.40;80.50;;;;;;5054215;28;20036;-76
2023/01/25 06:31:21;;;;;;;16.90;12.73;;;4.40;79.80;;;;;;5039924;28;20057;-78
2023/01/25 06:33:49;;;;;;;17.23;12.55;;;4.40;79.90;;;;;;5055959;28;20516;-78
2023/01/25 06:36:18;;;;;;;17.52;13.43;;;4.40;79.90;;;;;;5054984;28;20029;-77
2023/01/25 06:38:50;;;;;;;16.35;13.30;;;4.40;79.80;;;;;;5054188;28;20458;-77
2023/01/25 06:41:17;;;;;;;16.20;12.65;;;4.40;79.90;;;;;;5054042;28;20033;-76
2023/01/25 06:43:43;;;;;;;16.25;12.98;;;4.40;79.90;;;;;;5053971;28;20028;-77
2023/01/25 06:46:10;;;;;;;16.13;12.45;;;4.40;79.90;;;;;;5053704;28;20427;-77
2023/01/25 06:48:37;;;;;;;16.88;13.02;;;4.40;79.90;;;;;;5053310;28;20029;-77
2023/01/25 06:51:05;;;;;;;16.63;13.25;;;4.40;79.90;;;;;;5037514;28;20446;-77
2023/01/25 06:53:33;;;;;;;15.93;12.85;;;4.40;79.90;;;;;;5053353;28;20021;-78
2023/01/25 06:56:04;;;;;;;19.27;14.55;;;4.40;79.90;;;;;;5037284;28;20469;-78
2023/01/25 06:58:30;;;;;;;16.55;12.77;;;4.40;79.90;;;;;;5037839;28;20025;-77
2023/01/25 07:01:18;;;;;;;15.80;11.88;;;4.40;79.90;;;;;;5036850;28;20029;-78
2023/01/25 07:03:52;;;;;;;17.50;13.20;;;4.40;79.90;;;;;;5054807;28;20033;-78
2023/01/25 07:06:18;;;;;;;18.17;12.98;;;4.30;79.80;;;;;;5037124;28;20041;-77
2023/01/25 07:08:44;;;;;;;16.20;12.35;;;4.40;79.90;;;;;;5054747;28;20021;-78
2023/01/25 07:11:12;;;;;;;19.90;14.15;;;4.30;79.80;;;;;;5037817;28;20075;-79
2023/01/25 07:13:41;;;;;;;18.08;13.90;;;4.30;79.80;;;;;;5037234;28;20475;-77
2023/01/25 07:16:10;;;;;;;16.63;12.95;;;4.30;79.90;;;;;;5053231;28;20043;-81
2023/01/25 07:18:36;;;;;;;17.42;13.50;;;4.40;79.90;;;;;;5037494;28;20035;-77
2023/01/25 07:21:07;;;;;;;18.02;13.50;;;4.30;79.90;;;;;;5036965;28;20041;-77
2023/01/25 07:23:33;;;;;;;18.67;13.85;;;4.30;79.90;;;;;;5053511;28;20036;-77
2023/01/25 07:26:00;;;;;;;17.67;12.63;;;4.30;79.90;;;;;;5053085;28;20025;-78
2023/01/25 07:28:26;;;;;;;17.30;13.45;;;4.30;79.90;;;;;;5053170;28;20029;-77
2023/01/25 07:30:52;;;;;;;17.73;13.60;;;4.30;79.90;;;;;;5042424;28;20115;-77
2023/01/25 07:33:18;;;;;;;18.42;13.40;;;4.30;79.90;;;;;;5036825;28;20029;-77
2023/01/25 07:35:43;;;;;;;18.45;13.73;;;4.30;79.80;;;;;;5053274;28;20071;-78
2023/01/25 07:38:09;;;;;;;17.67;13.60;;;4.30;79.90;;;;;;5036726;28;20067;-76
2023/01/25 07:40:35;;;;;;;18.88;14.05;;;4.30;79.90;;;;;;5036294;28;20068;-78
2023/01/25 07:43:01;;;;;;;19.58;14.43;;;4.30;79.90;;;;;;5053207;28;20044;-78
2023/01/25 07:45:31;;;;;;;17.50;13.27;;;4.30;79.90;;;;;;5053679;28;20029;-78
2023/01/25 07:47:57;;;;;;;17.42;13.55;;;4.30;79.90;;;;;;5053382;28;20041;-77
2023/01/25 07:50:24;;;;;;;19.45;14.85;;;4.30;79.90;;;;;;5052981;28;20595;-77
2023/01/25 07:52:50;;;;;;;18.25;13.60;;;4.30;79.80;;;;;;5052970;28;20031;-78
2023/01/25 07:55:16;;;;;;;18.50;13.32;;;4.30;79.90;;;;;;5053656;28;20171;-78
2023/01/25 07:57:42;;;;;;;17.77;12.77;;;4.30;79.90;;;;;;5052939;28;20039;-77
2023/01/25 08:00:09;;;;;;;18.63;14.52;;;4.30;79.90;;;;;;5052599;28;20041;-77
2023/01/25 08:02:38;;;;;;;19.25;14.35;;;4.30;79.90;;;;;;5052794;28;20413;-77
2023/01/25 08:05:05;;;;;;;19.10;14.13;;;4.30;79.90;;;;;;5052642;28;20025;-78
2023/01/25 08:07:31;;;;;;;17.35;13.20;;;4.30;79.90;;;;;;5052706;28;20033;-77
2023/01/25 08:09:56;;;;;;;18.08;13.55;;;4.30;79.90;;;;;;5052567;28;20028;-77
2023/01/25 08:12:22;;;;;;;19.25;13.73;;;4.30;79.80;;;;;;5036033;28;20029;-78
2023/01/25 08:14:49;;;;;;;18.08;13.45;;;4.30;79.80;;;;;;5052560;28;20390;-78
2023/01/25 08:17:15;;;;;;;18.45;14.15;;;4.30;79.90;;;;;;5052735;28;20436;-77
2023/01/25 08:19:41;;;;;;;19.60;14.20;;;4.30;79.90;;;;;;5035840;28;20151;-78
2023/01/25 08:22:07;;;;;;;18.60;13.60;;;4.30;79.80;;;;;;5069255;28;20033;-79
2023/01/25 08:24:33;;;;;;;19.40;13.68;;;4.30;79.90;;;;;;5052764;28;20041;-78
2023/01/25 08:26:59;;;;;;;19.70;13.93;;;4.20;79.80;;;;;;5051715;28;20112;-78
2023/01/25 08:29:26;;;;;;;19.95;14.57;;;4.20;79.80;;;;;;5052620;28;20100;-78
2023/01/25 08:31:52;;;;;;;20.52;14.55;;;4.20;79.80;;;;;;5052530;28;20045;-79
2023/01/25 08:34:18;;;;;;;19.00;13.85;;;4.20;79.80;;;;;;5035848;28;20031;-78
2023/01/25 08:36:44;;;;;;;20.98;15.30;;;4.20;79.80;;;;;;5035712;28;20457;-78
2023/01/25 08:39:11;;;;;;;18.95;13.30;;;4.20;79.80;;;;;;5036122;28;20036;-78
2023/01/25 08:41:37;;;;;;;19.88;14.57;;;4.20;79.80;;;;;;5052175;28;20049;-77
2023/01/25 08:44:03;;;;;;;18.80;13.32;;;4.20;79.80;;;;;;5035896;28;20057;-78
2023/01/25 08:46:31;;;;;;;20.35;14.82;;;4.20;79.80;;;;;;5035958;28;20128;-78
2023/01/25 08:48:58;;;;;;;18.83;13.85;;;4.30;79.90;;;;;;5052565;28;20074;-78
2023/01/25 08:51:25;;;;;;;19.13;13.90;;;4.20;79.80;;;;;;5053337;28;20474;-78
2023/01/25 08:53:51;;;;;;;18.30;13.50;;;4.20;79.80;;;;;;5052350;28;20044;-78
2023/01/25 08:56:16;;;;;;;20.38;14.85;;;4.20;79.80;;;;;;5052557;28;20033;-77
2023/01/25 08:58:45;;;;;;;19.92;14.73;;;4.20;79.80;;;;;;5052211;28;20025;-78
2023/01/25 09:01:12;;;;;;;18.98;13.88;;;4.20;79.80;;;;;;5052028;28;20041;-78
2023/01/25 09:03:41;;;;;;;21.38;14.82;;;4.20;79.80;;;;;;5052053;28;20075;-78
2023/01/25 09:06:07;;;;;;;18.45;13.18;;;4.20;79.80;;;;;;5053289;28;20024;-78
2023/01/25 09:08:34;;;;;;;19.70;14.35;;;4.20;79.80;;;;;;5036275;28;20551;-78
2023/01/25 09:11:04;;;;;;;18.65;13.48;;;4.20;79.80;;;;;;5035002;28;20132;-78
2023/01/25 09:13:30;;;;;;;19.25;14.15;;;4.20;79.80;;;;;;5052969;28;20057;-78
2023/01/25 09:16:00;;;;;;;18.90;13.52;;;4.20;79.80;;;;;;5052182;28;20130;-78
2023/01/25 09:18:27;;;;;;;18.25;13.57;;;4.20;79.80;;;;;;5052161;28;20032;-78
2023/01/25 09:20:53;;;;;;;20.10;14.15;;;4.20;79.80;;;;;;5053274;28;20086;-78
2023/01/25 09:23:22;;;;;;;20.77;14.57;;;4.20;79.80;;;;;;5052799;28;20025;-78
2023/01/25 09:26:00;;;;;;;18.60;13.57;;;4.20;79.80;;;;;;5035824;28;20044;-77
2023/01/25 09:28:31;;;;;;;20.02;14.15;;;4.20;79.90;;;;;;5051787;28;20029;-78
2023/01/25 09:31:05;;;;;;;20.85;14.68;;;4.20;79.80;;;;;;5051397;28;20084;-78
2023/01/25 09:34:11;;;;;;;17.98;12.82;;;4.20;79.80;;;;;;5011211;28;20042;-78
2023/01/25 09:36:38;;;;;;;19.77;13.77;;;4.20;79.80;;;;;;4995340;28;20455;-78
2023/01/25 09:39:04;;;;;;;20.88;14.00;;;4.20;79.80;;;;;;5017034;28;20061;-77
2023/01/25 09:41:30;;;;;;;20.25;14.18;;;4.20;79.80;;;;;;5055535;28;20122;-78
2023/01/25 09:44:40;;;;;;;19.52;14.38;;;4.20;79.90;;;;;;5057419;28;20025;-78
2023/01/25 09:47:24;;;;;;;18.75;13.38;;;4.20;79.90;;;;;;5053025;28;20504;-78
2023/01/25 09:49:52;;;;;;;20.33;13.65;;;4.20;79.80;;;;;;5039232;28;20068;-78
2023/01/25 09:52:57;;;;;;;19.35;14.20;;;4.20;79.80;;;;;;5055513;28;20021;-77
2023/01/25 09:55:26;;;;;;;18.90;13.45;;;4.20;79.90;;;;;;5048740;28;20516;-76
2023/01/25 09:57:55;;;;;;;19.55;14.18;;;4.20;79.90;;;;;;5055647;28;20076;-77
2023/01/25 10:00:32;;;;;;;20.52;14.02;;;4.20;79.90;;;;;;5038587;28;20095;-80
2023/01/25 10:03:12;;;;;;;21.58;15.07;;;4.20;79.90;;;;;;5055330;28;20041;-80
2023/01/25 10:05:50;;;;;;;19.35;14.00;;;4.20;79.90;;;;;;5038211;28;20029;-79
2023/01/25 10:08:24;;;;;;;19.17;13.50;;;4.20;79.90;;;;;;5055918;28;20020;-80
2023/01/25 10:11:11;;;;;;;20.60;14.40;;;4.20;79.80;;;;;;5056399;28;20029;-79
2023/01/25 10:13:37;;;;;;;20.05;14.13;;;4.20;79.90;;;;;;5055631;28;20576;-80
2023/01/25 10:16:10;;;;;;;17.50;12.70;;;4.20;79.80;;;;;;5038173;28;20029;-79
2023/01/25 10:18:52;;;;;;;19.23;13.75;;;4.20;79.90;;;;;;5055996;28;20391;-80
2023/01/25 10:21:24;;;;;;;19.88;14.32;;;4.20;79.90;;;;;;5038940;28;20091;-81
2023/01/25 10:23:53;;;;;;;19.40;13.52;;;4.20;79.90;;;;;;5054669;28;20037;-80
2023/01/25 10:26:32;;;;;;;19.52;14.13;;;4.20;79.90;;;;;;5054755;28;20022;-80
2023/01/25 10:29:19;;;;;;;19.95;14.25;;;4.20;80.00;;;;;;5054935;28;20025;-80
2023/01/25 10:31:52;;;;;;;19.08;13.43;;;4.20;79.90;;;;;;5054234;28;20045;-79
2023/01/25 10:34:23;;;;;;;19.92;13.48;;;4.20;79.90;;;;;;5054534;28;20361;-79
2023/01/25 10:37:00;;;;;;;19.67;13.63;;;4.20;79.90;;;;;;5037720;28;20472;-79
2023/01/25 10:39:27;;;;;;;18.67;13.25;;;4.20;79.90;;;;;;5054380;28;20032;-79
2023/01/25 10:42:06;;;;;;;19.33;13.48;;;4.20;79.90;;;;;;5054374;28;20055;-79
2023/01/25 10:44:32;;;;;;;18.65;13.70;;;4.20;79.90;;;;;;5054987;28;20025;-76
2023/01/25 10:47:06;;;;;;;19.65;13.85;;;4.20;79.90;;;;;;5053932;28;20101;-80
2023/01/25 10:49:45;;;;;;;21.25;14.60;;;4.20;79.90;;;;;;5053241;28;20032;-79
2023/01/25 10:52:21;;;;;;;19.30;13.80;;;4.20;79.90;;;;;;5054348;28;20028;-79
2023/01/25 10:54:49;;;;;;;19.40;13.23;;;4.20;79.90;;;;;;5055428;28;20025;-79
2023/01/25 10:57:18;;;;;;;19.13;13.88;;;4.20;79.90;;;;;;5055040;28;20020;-79
2023/01/25 10:59:51;;;;;;;19.88;14.05;;;4.20;79.90;;;;;;5053807;28;20025;-79
2023/01/25 11:02:25;;;;;;;22.08;15.07;;;4.20;79.90;;;;;;5054088;28;20155;-80
2023/01/25 11:04:50;;;;;;;20.00;13.95;;;4.20;79.90;;;;;;5053814;28;20043;-79
2023/01/25 11:07:27;;;;;;;21.58;14.63;;;4.20;79.80;;;;;;5037178;28;20470;-79
2023/01/25 11:09:53;;;;;;;20.27;14.32;;;4.20;79.80;;;;;;5036925;28;20025;-79
2023/01/25 11:12:20;;;;;;;19.73;13.77;;;4.20;79.80;;;;;;5054074;28;20025;-82
2023/01/25 11:14:51;;;;;;;20.88;14.82;;;4.20;79.80;;;;;;5053869;28;20036;-79
2023/01/25 11:17:28;;;;;;;20.98;15.00;;;4.20;79.80;;;;;;5054406;28;20063;-79
2023/01/25 11:20:18;;;;;;;20.33;14.73;;;4.20;79.80;;;;;;5054107;28;20036;-80
2023/01/25 11:22:56;;;;;;;20.42;14.80;;;4.30;79.90;;;;;;5053524;28;20029;-80
2023/01/25 11:25:29;;;;;;;20.63;13.73;;;4.30;79.90;;;;;;5037688;28;20025;-79
2023/01/25 11:28:23;;;;;;;20.60;14.30;;;4.20;79.80;;;;;;5054470;28;20059;-79
2023/01/25 11:30:52;;;;;;;20.00;13.32;;;4.20;79.90;;;;;;5052724;28;20514;-80
2023/01/25 11:33:20;;;;;;;20.73;14.70;;;4.30;79.90;;;;;;5053777;28;20079;-83
2023/01/25 11:36:09;;;;;;;21.88;15.52;;;4.30;79.90;;;;;;5038430;28;20029;-79
2023/01/25 11:38:36;;;;;;;22.67;14.88;;;4.30;80.00;;;;;;5054019;28;20036;-79
2023/01/25 11:41:32;;;;;;;22.38;15.68;;;4.30;79.90;;;;;;5053828;28;20107;-79
2023/01/25 11:44:08;;;;;;;;;;;4.30;80.00;;;;;;5055969;28;20029;-82
2023/01/25 11:46:39;;;;;;;;;;;4.20;79.80;;;;;;5055083;28;19913;-80
2023/01/25 11:49:40;;;;;;;18.75;12.57;;;4.20;79.70;;;;;;5055967;28;19980;-80
2023/01/25 11:52:15;;;;;;;20.20;14.10;;;4.20;79.80;;;;;;5054161;28;20421;-79
2023/01/25 11:54:44;;;;;;;;;;;4.20;79.80;;;;;;5054536;28;20470;-82
2023/01/25 11:57:29;;;;;;;18.52;12.82;;;4.20;79.80;;;;;;5055074;28;20312;-79
2023/01/25 12:00:23;;;;;;;18.73;12.73;;;4.20;79.80;;;;;;5054805;28;20028;-80
2023/01/25 12:02:58;;;;;;;21.63;13.88;;;4.20;79.90;;;;;;5055999;28;20039;-78
2023/01/25 12:05:37;;;;;;;21.08;14.75;;;4.20;79.90;;;;;;5056973;28;20107;-78
2023/01/25 12:08:03;;;;;;;20.98;13.52;;;4.20;79.90;;;;;;5055195;28;20049;-78
2023/01/25 12:10:50;;;;;;;22.50;15.18;;;4.20;79.90;;;;;;5037980;28;20453;-78
2023/01/25 12:13:34;;;;;;;22.52;14.98;;;4.20;80.00;;;;;;5036687;28;20033;-78
2023/01/25 12:16:17;;;;;;;21.92;14.43;;;4.20;80.00;;;;;;5037801;28;20033;-77
2023/01/25 12:18:51;;;;;;;22.10;15.13;;;4.20;80.00;;;;;;5055029;28;20029;-76
2023/01/25 12:21:26;;;;;;;24.55;16.15;;;4.30;80.10;;;;;;5036519;28;20509;-77
2023/01/25 12:24:14;;;;;;;22.73;14.48;;;4.30;80.00;;;;;;5053442;28;20025;-80
2023/01/25 12:26:55;;;;;;;21.92;15.27;;;4.30;80.00;;;;;;5053911;28;20033;-80
2023/01/25 12:29:54;;;;;;;23.30;14.95;;;4.30;80.00;;;;;;5053017;28;20033;-79
2023/01/25 12:32:36;;;;;;;20.30;13.68;;;4.30;80.00;;;;;;5076548;28;20044;-80
2023/01/25 12:35:39;;;;;;;21.55;14.18;;;4.30;80.00;;;;;;5059928;28;20028;-81
2023/01/25 12:38:31;;;;;;;24.23;15.55;;;4.30;80.00;;;;;;5076697;28;20024;-81
2023/01/25 12:41:02;;;;;;;22.48;14.73;;;4.30;80.00;;;;;;5076222;28;20380;-79
2023/01/25 12:43:45;;;;;;;21.40;14.38;;;4.30;80.00;;;;;;5075722;28;20031;-81
2023/01/25 12:46:24;;;;;;;21.15;15.10;;;4.30;80.00;;;;;;5059113;28;20024;-79
2023/01/25 12:48:53;;;;;;;24.38;16.60;;;4.30;80.00;;;;;;5075585;28;20035;-80
2023/01/25 12:51:21;;;;;;;23.40;15.90;;;4.30;80.00;;;;;;5059219;28;20020;-81
2023/01/25 12:53:48;;;;;;;22.90;15.45;;;4.30;80.00;;;;;;5059002;28;20032;-80
2023/01/25 12:56:42;;;;;;;22.85;15.70;;;4.30;80.00;;;;;;5075805;28;20111;-80
2023/01/25 12:59:55;;;;;;;22.45;14.98;;;4.30;80.00;;;;;;5059997;28;20028;-80
2023/01/25 13:03:00;;;;;;;21.60;14.80;;;4.30;80.00;;;;;;4975930;28;20498;-80
2023/01/25 13:05:43;;;;;;;22.17;14.98;;;4.30;80.00;;;;;;4992757;28;20034;-80